Time;durP1;ratioP1;P1;durP2;ratioP2;P2;SDS_P1;SDS_P2;PMS_P1;PMS_P2;Temp;Humidity;BMP_temperature;BMP_pressure;BME280_temperature;BME280_humidity;BME280_pressure;Samples;Min_cycle;Max_cycle;Signal;HPM_P1;HPM_P2
2022/04/25 00:02:22;;;;;;;12.55;5.63;;;;;;;;;;5029943;28;20524;-78
2022/04/25 00:04:49;;;;;;;11.07;6.10;;;;;;;;;;5026386;28;20053;-78
2022/04/25 00:07:16;;;;;;;12.85;5.57;;;;;;;;;;5025191;28;20769;-78
2022/04/25 00:09:44;;;;;;;9.93;5.63;;;;;;;;;;5014841;28;20054;-78
2022/04/25 00:12:11;;;;;;;15.30;7.13;;;;;;;;;;5030833;28;20054;-77
2022/04/25 00:14:37;;;;;;;12.82;5.63;;;;;;;;;;5043051;28;20140;-78
2022/04/25 00:17:04;;;;;;;11.57;5.88;;;;;;;;;;5030526;28;20050;-77
2022/04/25 00:19:30;;;;;;;15.02;6.65;;;;;;;;;;5048324;28;20057;-78
2022/04/25 00:21:57;;;;;;;14.13;6.85;;;;;;;;;;5025638;28;20580;-78
2022/04/25 00:24:23;;;;;;;12.85;6.38;;;;;;;;;;5015845;28;20078;-78
2022/04/25 00:26:50;;;;;;;15.85;6.90;;;;;;;;;;5023090;28;20054;-77
2022/04/25 00:29:16;;;;;;;11.80;6.80;;;;;;;;;;5046880;28;20425;-77
2022/04/25 00:31:43;;;;;;;12.52;6.30;;;;;;;;;;5045246;28;20523;-77
2022/04/25 00:34:09;;;;;;;14.73;6.45;;;;;;;;;;5031383;28;20068;-78
2022/04/25 00:36:36;;;;;;;12.88;6.20;;;;;;;;;;5028260;28;20133;-77
2022/04/25 00:39:02;;;;;;;12.57;6.60;;;;;;;;;;5047702;28;20057;-77
2022/04/25 00:41:29;;;;;;;13.73;6.72;;;;;;;;;;5031428;28;20120;-77
2022/04/25 00:43:56;;;;;;;10.40;6.03;;;;;;;;;;5046180;28;20058;-77
2022/04/25 00:46:24;;;;;;;11.43;6.38;;;;;;;;;;5030431;28;20583;-77
2022/04/25 00:48:50;;;;;;;16.30;6.95;;;;;;;;;;5038310;28;20046;-78
2022/04/25 00:51:17;;;;;;;14.80;6.55;;;;;;;;;;5036919;28;20050;-78
2022/04/25 00:53:44;;;;;;;10.73;6.45;;;;;;;;;;5042263;28;20080;-78
2022/04/25 00:56:12;;;;;;;13.82;6.80;;;;;;;;;;5027552;28;20059;-77
2022/04/25 00:58:39;;;;;;;15.43;6.50;;;;;;;;;;5036570;28;20106;-77
2022/04/25 01:01:06;;;;;;;13.38;6.57;;;;;;;;;;5026571;28;20038;-78
2022/04/25 01:03:33;;;;;;;11.77;6.40;;;;;;;;;;5031313;28;20104;-77
2022/04/25 01:05:59;;;;;;;10.45;6.00;;;;;;;;;;5042277;28;20054;-77
2022/04/25 01:08:26;;;;;;;12.77;6.43;;;;;;;;;;5026163;28;20051;-77
2022/04/25 01:10:52;;;;;;;17.80;7.47;;;;;;;;;;5027236;28;20054;-77
2022/04/25 01:13:19;;;;;;;14.40;6.85;;;;;;;;;;5032116;28;20054;-78
2022/04/25 01:15:45;;;;;;;11.73;6.38;;;;;;;;;;5051999;28;20134;-77
2022/04/25 01:18:12;;;;;;;13.10;6.80;;;;;;;;;;5024938;28;20065;-77
2022/04/25 01:20:38;;;;;;;16.27;7.18;;;;;;;;;;5047049;28;20089;-78
2022/04/25 01:28:52;;;;;;;14.35;5.95;;;;;;;;;;5016508;28;20038;-77
2022/04/25 01:31:19;;;;;;;15.05;7.07;;;;;;;;;;5029167;28;20129;-78
2022/04/25 01:33:45;;;;;;;16.30;7.15;;;;;;;;;;5018908;28;20057;-78
2022/04/25 01:36:12;;;;;;;13.02;6.30;;;;;;;;;;5029765;28;20380;-78
2022/04/25 01:38:38;;;;;;;15.10;7.25;;;;;;;;;;5039535;28;20148;-78
2022/04/25 01:41:05;;;;;;;14.07;7.07;;;;;;;;;;5055202;28;20468;-78
2022/04/25 01:43:36;;;;;;;15.27;8.02;;;;;;;;;;5045411;28;20579;-77
2022/04/25 01:46:05;;;;;;;13.63;7.28;;;;;;;;;;5045233;28;20082;-78
2022/04/25 01:48:32;;;;;;;13.70;7.20;;;;;;;;;;5030307;28;20101;-78
2022/04/25 01:50:59;;;;;;;14.18;6.97;;;;;;;;;;5030244;28;20043;-78
2022/04/25 01:53:25;;;;;;;18.25;7.65;;;;;;;;;;5022349;28;20590;-78
2022/04/25 01:55:51;;;;;;;15.80;7.47;;;;;;;;;;5031858;28;20143;-78
2022/04/25 01:58:19;;;;;;;13.80;7.00;;;;;;;;;;5038182;28;20109;-77
2022/04/25 02:00:46;;;;;;;13.77;6.78;;;;;;;;;;5045138;28;20145;-77
2022/04/25 02:03:13;;;;;;;12.68;6.90;;;;;;;;;;5044195;28;20108;-77
2022/04/25 02:05:39;;;;;;;15.60;7.88;;;;;;;;;;5040442;28;20054;-77
2022/04/25 02:08:06;;;;;;;22.13;7.35;;;;;;;;;;5027847;28;20093;-78
2022/04/25 02:10:32;;;;;;;16.20;7.22;;;;;;;;;;5043135;28;20112;-78
2022/04/25 02:12:59;;;;;;;16.45;7.50;;;;;;;;;;5035526;28;20094;-77
2022/04/25 02:15:28;;;;;;;15.00;7.32;;;;;;;;;;5041664;28;20509;-78
2022/04/25 02:17:54;;;;;;;14.32;6.90;;;;;;;;;;5043070;28;20050;-78
2022/04/25 02:20:21;;;;;;;15.63;8.00;;;;;;;;;;5034751;28;20049;-77
2022/04/25 02:22:48;;;;;;;18.67;7.97;;;;;;;;;;5024354;28;20081;-77
2022/04/25 02:25:14;;;;;;;14.68;7.88;;;;;;;;;;5014405;28;20182;-78
2022/04/25 02:27:40;;;;;;;20.08;8.00;;;;;;;;;;5022560;28;20496;-78
2022/04/25 02:30:10;;;;;;;15.77;7.55;;;;;;;;;;5037353;28;20057;-77
2022/04/25 02:32:36;;;;;;;15.15;7.63;;;;;;;;;;5048907;28;20058;-77
2022/04/25 02:35:03;;;;;;;17.83;7.85;;;;;;;;;;5044382;28;20053;-77
2022/04/25 02:37:30;;;;;;;15.32;8.15;;;;;;;;;;5035698;28;20136;-77
2022/04/25 02:39:57;;;;;;;15.05;8.35;;;;;;;;;;5033848;28;20093;-77
2022/04/25 02:42:24;;;;;;;17.27;8.30;;;;;;;;;;5011807;28;20058;-78
2022/04/25 02:44:50;;;;;;;15.52;7.43;;;;;;;;;;5023078;28;20042;-77
2022/04/25 02:47:17;;;;;;;16.08;7.63;;;;;;;;;;5028743;28;20057;-77
2022/04/25 02:49:45;;;;;;;15.90;7.70;;;;;;;;;;5038190;28;20060;-78
2022/04/25 02:52:13;;;;;;;19.75;8.43;;;;;;;;;;5024601;28;20140;-78
2022/04/25 02:54:39;;;;;;;20.17;8.70;;;;;;;;;;5020354;28;20093;-77
2022/04/25 02:57:06;;;;;;;18.35;8.63;;;;;;;;;;5023774;28;20992;-78
2022/04/25 02:59:32;;;;;;;15.60;8.20;;;;;;;;;;5029225;28;20569;-78
2022/04/25 03:01:58;;;;;;;17.58;8.88;;;;;;;;;;5032258;28;20182;-77
2022/04/25 03:04:25;;;;;;;17.38;8.55;;;;;;;;;;5042596;28;20535;-77
2022/04/25 03:06:53;;;;;;;14.18;8.07;;;;;;;;;;5027468;28;20065;-77
2022/04/25 03:09:20;;;;;;;18.02;8.60;;;;;;;;;;5043513;28;20054;-78
2022/04/25 03:11:49;;;;;;;15.68;7.90;;;;;;;;;;5011285;28;20054;-78
2022/04/25 03:14:15;;;;;;;15.93;8.32;;;;;;;;;;5022446;28;20907;-78
2022/04/25 03:16:42;;;;;;;17.17;8.55;;;;;;;;;;5040271;28;20156;-77
2022/04/25 03:19:09;;;;;;;18.45;8.15;;;;;;;;;;5042146;28;20165;-78
2022/04/25 03:21:35;;;;;;;17.58;8.40;;;;;;;;;;5025356;28;20564;-78
2022/04/25 03:24:02;;;;;;;15.25;8.52;;;;;;;;;;5037682;28;20089;-77
2022/04/25 03:26:29;;;;;;;17.33;8.60;;;;;;;;;;5019257;28;20050;-77
2022/04/25 03:28:55;;;;;;;19.58;8.77;;;;;;;;;;5027388;28;20201;-77
2022/04/25 03:31:22;;;;;;;18.45;8.35;;;;;;;;;;5037861;28;20452;-77
2022/04/25 03:33:48;;;;;;;21.17;8.15;;;;;;;;;;5024614;28;20513;-78
2022/04/25 03:36:15;;;;;;;17.08;8.65;;;;;;;;;;5036345;28;20085;-77
2022/04/25 03:38:42;;;;;;;18.58;8.77;;;;;;;;;;5039282;28;20054;-77
2022/04/25 03:41:09;;;;;;;17.23;8.95;;;;;;;;;;5009681;28;20054;-77
2022/04/25 03:43:35;;;;;;;16.17;8.77;;;;;;;;;;5021605;28;20535;-77
2022/04/25 03:46:02;;;;;;;21.48;9.15;;;;;;;;;;5034076;28;20054;-77
2022/04/25 03:48:28;;;;;;;16.30;8.43;;;;;;;;;;5038488;28;20051;-77
2022/04/25 03:50:55;;;;;;;23.23;9.20;;;;;;;;;;5021185;28;20062;-78
2022/04/25 03:53:21;;;;;;;15.98;8.68;;;;;;;;;;5024745;28;20508;-77
2022/04/25 03:58:33;;;;;;;20.02;9.70;;;;;;;;;;5019407;28;20651;-77
2022/04/25 04:01:02;;;;;;;19.30;9.27;;;;;;;;;;5016352;28;20089;-77
2022/04/25 04:03:30;;;;;;;20.63;9.25;;;;;;;;;;5019646;28;20618;-77
2022/04/25 04:05:57;;;;;;;17.02;9.13;;;;;;;;;;5045342;28;20050;-77
2022/04/25 04:08:23;;;;;;;21.45;11.02;;;;;;;;;;5028017;28;20050;-77
2022/04/25 04:10:49;;;;;;;21.60;9.85;;;;;;;;;;5012628;28;20081;-77
2022/04/25 04:13:16;;;;;;;22.30;9.77;;;;;;;;;;5030735;28;20137;-77
2022/04/25 04:15:42;;;;;;;17.67;9.43;;;;;;;;;;5028963;28;20065;-78
2022/04/25 04:18:09;;;;;;;19.92;9.40;;;;;;;;;;5030085;28;20112;-77
2022/04/25 04:20:35;;;;;;;19.45;9.98;;;;;;;;;;5038281;28;20104;-77
2022/04/25 04:23:03;;;;;;;17.17;9.88;;;;;;;;;;5026834;28;20053;-77
2022/04/25 04:25:32;;;;;;;20.67;10.35;;;;;;;;;;5028543;28;20060;-77
2022/04/25 04:27:59;;;;;;;23.88;11.18;;;;;;;;;;5025336;28;20084;-78
2022/04/25 04:30:26;;;;;;;21.23;10.93;;;;;;;;;;5025546;28;20061;-77
2022/04/25 04:32:52;;;;;;;22.10;10.55;;;;;;;;;;5024159;28;20061;-77
2022/04/25 04:38:05;;;;;;;17.05;9.40;;;;;;;;;;5025123;28;20567;-78
2022/04/25 04:40:32;;;;;;;16.40;9.68;;;;;;;;;;5036673;28;20059;-78
2022/04/25 04:42:58;;;;;;;19.05;10.35;;;;;;;;;;5022949;28;20132;-78
2022/04/25 04:45:25;;;;;;;22.55;10.68;;;;;;;;;;5022227;28;20054;-78
2022/04/25 04:47:53;;;;;;;19.73;9.75;;;;;;;;;;5024437;28;20054;-78
2022/04/25 04:50:20;;;;;;;18.67;10.57;;;;;;;;;;5029361;28;20054;-78
2022/04/25 04:52:50;;;;;;;17.33;10.05;;;;;;;;;;5017790;28;20112;-78
2022/04/25 04:55:17;;;;;;;21.48;11.18;;;;;;;;;;5011477;28;20170;-78
2022/04/25 04:57:43;;;;;;;18.52;10.65;;;;;;;;;;5036421;28;20501;-78
2022/04/25 05:00:11;;;;;;;20.92;11.57;;;;;;;;;;5025415;28;20049;-78
2022/04/25 05:02:38;;;;;;;23.88;11.10;;;;;;;;;;5033712;28;20531;-78
2022/04/25 05:05:05;;;;;;;27.17;12.05;;;;;;;;;;5025837;28;20146;-78
2022/04/25 05:07:32;;;;;;;25.40;12.27;;;;;;;;;;5021074;28;20197;-78
2022/04/25 05:09:58;;;;;;;21.75;11.35;;;;;;;;;;5015121;28;20098;-78
2022/04/25 05:12:26;;;;;;;23.80;12.20;;;;;;;;;;5025838;28;20131;-77
2022/04/25 05:14:54;;;;;;;22.50;12.65;;;;;;;;;;5014828;28;20465;-77
2022/04/25 05:17:20;;;;;;;22.90;12.38;;;;;;;;;;5037306;28;20057;-77
2022/04/25 05:19:47;;;;;;;22.55;12.10;;;;;;;;;;5037232;28;20911;-76
2022/04/25 05:22:13;;;;;;;22.98;12.15;;;;;;;;;;5020474;28;20077;-74
2022/04/25 05:24:39;;;;;;;23.00;12.10;;;;;;;;;;5011336;28;20166;-75
2022/04/25 05:27:06;;;;;;;24.27;14.02;;;;;;;;;;5022034;28;20057;-74
2022/04/25 05:29:32;;;;;;;26.27;12.68;;;;;;;;;;5020183;28;20089;-75
2022/04/25 05:31:59;;;;;;;29.02;14.60;;;;;;;;;;5016167;28;20065;-75
2022/04/25 05:34:36;;;;;;;26.92;14.52;;;;;;;;;;5027441;28;20191;-74
2022/04/25 05:37:03;;;;;;;28.45;14.43;;;;;;;;;;5027240;28;20042;-74
2022/04/25 05:39:30;;;;;;;27.00;14.27;;;;;;;;;;5019757;28;20141;-76
2022/04/25 05:42:01;;;;;;;28.85;14.68;;;;;;;;;;5017593;28;20108;-76
2022/04/25 05:44:28;;;;;;;32.88;14.70;;;;;;;;;;5027522;28;20410;-74
2022/04/25 05:46:55;;;;;;;30.63;15.18;;;;;;;;;;5025636;28;21640;-75
2022/04/25 05:52:08;;;;;;;25.60;14.02;;;;;;;;;;5011121;28;20519;-74
2022/04/25 05:54:36;;;;;;;27.33;14.20;;;;;;;;;;5011817;28;20555;-75
2022/04/25 05:57:02;;;;;;;27.45;14.43;;;;;;;;;;5025818;28;20050;-75
2022/04/25 05:59:29;;;;;;;29.00;15.07;;;;;;;;;;5018622;28;20065;-75
2022/04/25 06:01:57;;;;;;;32.70;15.88;;;;;;;;;;5022513;28;20492;-75
2022/04/25 06:04:24;;;;;;;25.80;14.68;;;;;;;;;;5023426;28;20535;-75
2022/04/25 06:06:55;;;;;;;30.20;15.32;;;;;;;;;;5026828;28;20150;-75
2022/04/25 06:09:25;;;;;;;28.38;14.73;;;;;;;;;;5026383;28;20516;-76
2022/04/25 06:11:53;;;;;;;27.27;14.98;;;;;;;;;;5008764;28;20125;-75
2022/04/25 06:14:21;;;;;;;25.88;14.57;;;;;;;;;;5009237;28;20051;-75
2022/04/25 06:16:48;;;;;;;28.33;14.82;;;;;;;;;;5017778;28;20053;-74
2022/04/25 06:19:14;;;;;;;30.30;16.35;;;;;;;;;;5040834;28;20081;-75
2022/04/25 06:21:41;;;;;;;32.53;15.88;;;;;;;;;;5038350;28;20150;-76
2022/04/25 06:24:07;;;;;;;30.92;15.25;;;;;;;;;;5025538;28;20054;-76
2022/04/25 06:26:36;;;;;;;29.55;16.27;;;;;;;;;;5023116;28;20064;-77
2022/04/25 06:29:03;;;;;;;39.15;17.17;;;;;;;;;;5025922;28;20737;-75
2022/04/25 06:31:29;;;;;;;37.17;17.33;;;;;;;;;;5025264;28;20105;-75
2022/04/25 06:33:57;;;;;;;29.55;16.27;;;;;;;;;;5041906;28;20514;-77
2022/04/25 06:36:24;;;;;;;31.98;15.82;;;;;;;;;;5027090;28;20128;-78
2022/04/25 06:38:51;;;;;;;35.63;16.48;;;;;;;;;;5025555;28;20059;-76
2022/04/25 06:41:17;;;;;;;33.78;18.08;;;;;;;;;;5027069;28;20073;-76
2022/04/25 06:43:43;;;;;;;35.00;17.08;;;;;;;;;;5027631;28;20147;-75
2022/04/25 06:46:10;;;;;;;33.97;17.88;;;;;;;;;;5027992;28;20058;-75
2022/04/25 06:48:36;;;;;;;29.63;16.58;;;;;;;;;;5028419;28;20501;-77
2022/04/25 06:51:03;;;;;;;30.33;16.80;;;;;;;;;;5026685;28;20131;-76
2022/04/25 06:53:29;;;;;;;34.42;17.50;;;;;;;;;;5026517;28;20050;-76
2022/04/25 06:55:56;;;;;;;33.17;18.25;;;;;;;;;;5026254;28;20058;-76
2022/04/25 06:58:22;;;;;;;33.13;16.17;;;;;;;;;;5027091;28;20045;-75
2022/04/25 07:00:49;;;;;;;31.23;17.05;;;;;;;;;;5026212;28;20108;-75
2022/04/25 07:03:28;;;;;;;33.65;17.73;;;;;;;;;;5010720;28;20141;-77
2022/04/25 07:05:55;;;;;;;33.03;16.58;;;;;;;;;;5024206;28;20564;-76
2022/04/25 07:08:22;;;;;;;35.00;18.10;;;;;;;;;;5027382;28;20046;-76
2022/04/25 07:10:48;;;;;;;30.83;17.90;;;;;;;;;;5026883;28;20524;-75
2022/04/25 07:13:17;;;;;;;36.35;17.55;;;;;;;;;;5025313;28;20054;-75
2022/04/25 07:15:44;;;;;;;34.05;17.30;;;;;;;;;;5040114;28;20054;-77
2022/04/25 07:18:10;;;;;;;33.35;17.02;;;;;;;;;;5020481;28;20145;-76
2022/04/25 07:20:37;;;;;;;29.50;16.73;;;;;;;;;;5027221;28;20104;-75
2022/04/25 07:28:50;;;;;;;29.17;15.93;;;;;;;;;;5019490;28;20128;-75
2022/04/25 07:31:17;;;;;;;34.28;16.25;;;;;;;;;;5025873;28;20512;-75
2022/04/25 07:33:45;;;;;;;30.38;15.63;;;;;;;;;;5042216;28;20058;-75
2022/04/25 07:36:13;;;;;;;28.63;16.98;;;;;;;;;;5023182;28;20211;-75
2022/04/25 07:38:50;;;;;;;33.42;17.77;;;;;;;;;;5016585;28;20064;-74
2022/04/25 07:41:17;;;;;;;28.73;16.38;;;;;;;;;;5024483;28;20084;-75
2022/04/25 07:43:44;;;;;;;28.55;15.77;;;;;;;;;;5027828;28;20112;-75
2022/04/25 07:46:13;;;;;;;30.98;16.60;;;;;;;;;;5023196;28;20077;-75
2022/04/25 07:48:40;;;;;;;29.77;15.77;;;;;;;;;;5033436;28;20057;-75
2022/04/25 07:51:06;;;;;;;27.63;15.98;;;;;;;;;;5025405;28;20132;-75
2022/04/25 07:53:33;;;;;;;32.58;16.85;;;;;;;;;;5022283;28;20550;-75
2022/04/25 07:55:59;;;;;;;29.20;16.67;;;;;;;;;;5023705;28;20046;-74
2022/04/25 07:58:26;;;;;;;30.15;16.40;;;;;;;;;;5037498;28;20146;-74
2022/04/25 08:00:52;;;;;;;29.90;15.32;;;;;;;;;;5014905;28;20101;-75
2022/04/25 08:03:25;;;;;;;30.92;15.40;;;;;;;;;;5018460;28;20070;-74
2022/04/25 08:05:51;;;;;;;28.40;15.48;;;;;;;;;;5013119;28;20145;-75
2022/04/25 08:08:18;;;;;;;23.63;14.57;;;;;;;;;;5018021;28;20054;-75
2022/04/25 08:10:44;;;;;;;25.92;15.15;;;;;;;;;;5020671;28;20531;-75
2022/04/25 08:18:41;;;;;;;28.45;15.43;;;;;;;;;;5022549;28;20058;-75
2022/04/25 08:21:08;;;;;;;29.88;15.82;;;;;;;;;;5034321;28;20098;-75
2022/04/25 08:23:35;;;;;;;30.05;17.40;;;;;;;;;;5028579;28;20554;-75
2022/04/25 08:26:02;;;;;;;28.77;16.70;;;;;;;;;;5027449;28;20064;-76
2022/04/25 08:28:29;;;;;;;24.10;14.75;;;;;;;;;;5028307;28;20077;-76
2022/04/25 08:31:16;;;;;;;28.75;14.43;;;;;;;;;;5038806;28;20060;-75
2022/04/25 08:33:46;;;;;;;29.42;14.93;;;;;;;;;;5028719;28;20051;-75
2022/04/25 08:36:12;;;;;;;25.13;13.07;;;;;;;;;;5025558;28;20046;-75
2022/04/25 08:38:43;;;;;;;26.02;13.95;;;;;;;;;;5041279;28;20066;-75
2022/04/25 08:41:10;;;;;;;23.33;13.32;;;;;;;;;;5029490;28;20057;-75
2022/04/25 08:43:38;;;;;;;24.20;12.63;;;;;;;;;;5028948;28;20870;-76
2022/04/25 08:46:07;;;;;;;22.83;12.43;;;;;;;;;;5042966;28;20100;-75
2022/04/25 08:48:34;;;;;;;22.13;12.25;;;;;;;;;;5045707;28;20049;-75
2022/04/25 08:51:02;;;;;;;21.80;12.75;;;;;;;;;;5019912;28;20054;-75
2022/04/25 08:53:29;;;;;;;22.05;12.07;;;;;;;;;;5026929;28;20144;-75
2022/04/25 08:55:56;;;;;;;22.02;12.18;;;;;;;;;;5038979;22;20049;-75
2022/04/25 08:58:23;;;;;;;23.70;12.98;;;;;;;;;;5051245;28;20546;-75
2022/04/25 09:00:50;;;;;;;21.70;12.18;;;;;;;;;;5046731;28;20489;-75
2022/04/25 09:03:17;;;;;;;20.48;11.93;;;;;;;;;;5047337;28;20065;-76
2022/04/25 09:05:44;;;;;;;23.60;12.25;;;;;;;;;;5049400;28;20480;-75
2022/04/25 09:08:11;;;;;;;26.10;13.88;;;;;;;;;;5046485;28;20776;-75
2022/04/25 09:10:38;;;;;;;20.67;12.52;;;;;;;;;;5046547;28;20106;-75
2022/04/25 09:13:05;;;;;;;26.08;13.95;;;;;;;;;;5053538;28;20152;-75
2022/04/25 09:15:32;;;;;;;28.02;13.60;;;;;;;;;;5053066;28;20530;-75
2022/04/25 09:17:59;;;;;;;24.38;12.32;;;;;;;;;;5065070;28;20467;-75
2022/04/25 09:20:26;;;;;;;27.13;13.55;;;;;;;;;;5044500;28;20061;-75
2022/04/25 09:22:53;;;;;;;26.90;13.18;;;;;;;;;;5047777;28;20049;-75
2022/04/25 09:25:21;;;;;;;26.90;14.18;;;;;;;;;;5044351;28;20053;-76
2022/04/25 09:28:12;;;;;;;27.73;13.77;;;;;;;;;;5044692;28;20579;-75
2022/04/25 09:30:53;;;;;;;28.58;14.15;;;;;;;;;;5061380;28;20057;-75
2022/04/25 09:33:21;;;;;;;24.42;13.98;;;;;;;;;;5061021;28;20581;-76
2022/04/25 09:35:52;;;;;;;27.73;13.82;;;;;;;;;;5047266;28;20049;-76
2022/04/25 09:38:27;;;;;;;25.55;13.60;;;;;;;;;;5064727;28;20064;-75
2022/04/25 09:40:55;;;;;;;27.60;13.20;;;;;;;;;;5046300;28;20108;-75
2022/04/25 09:43:29;;;;;;;25.60;13.95;;;;;;;;;;5048648;28;20526;-75
2022/04/25 09:46:03;;;;;;;27.92;14.07;;;;;;;;;;5047670;28;20115;-75
2022/04/25 09:48:29;;;;;;;28.50;14.48;;;;;;;;;;5051952;28;20046;-75
2022/04/25 09:51:00;;;;;;;24.00;13.15;;;;;;;;;;5051681;28;20614;-75
2022/04/25 09:53:44;;;;;;;26.52;14.32;;;;;;;;;;5062132;28;20136;-74
2022/04/25 09:56:15;;;;;;;26.98;14.07;;;;;;;;;;5062627;28;20100;-75
2022/04/25 09:58:43;;;;;;;25.00;14.15;;;;;;;;;;5044890;28;20504;-74
2022/04/25 10:01:13;;;;;;;23.10;13.20;;;;;;;;;;5046994;28;20237;-74
2022/04/25 10:03:40;;;;;;;29.73;13.77;;;;;;;;;;5046069;28;20097;-75
2022/04/25 10:06:07;;;;;;;23.85;12.80;;;;;;;;;;5061327;28;20065;-75
2022/04/25 10:08:35;;;;;;;27.02;13.27;;;;;;;;;;5047749;28;20104;-74
2022/04/25 10:11:07;;;;;;;27.45;13.40;;;;;;;;;;5044622;28;20140;-75
2022/04/25 10:13:34;;;;;;;22.85;12.65;;;;;;;;;;5037884;28;20065;-75
2022/04/25 10:16:00;;;;;;;21.42;11.85;;;;;;;;;;5045083;28;20085;-74
2022/04/25 10:18:28;;;;;;;22.83;12.68;;;;;;;;;;5046591;28;20057;-75
2022/04/25 10:20:55;;;;;;;24.58;13.50;;;;;;;;;;5046316;28;20116;-75
2022/04/25 10:23:21;;;;;;;22.80;12.95;;;;;;;;;;5045791;28;20049;-75
2022/04/25 10:25:49;;;;;;;24.00;13.00;;;;;;;;;;5045917;28;20167;-75
2022/04/25 10:28:36;;;;;;;23.52;13.55;;;;;;;;;;5044772;28;20084;-75
2022/04/25 10:31:14;;;;;;;25.02;13.20;;;;;;;;;;5052774;28;20111;-75
2022/04/25 10:33:51;;;;;;;22.67;11.68;;;;;;;;;;5044836;28;20053;-75
2022/04/25 10:36:36;;;;;;;21.48;12.48;;;;;;;;;;5061989;28;20504;-75
2022/04/25 10:39:16;;;;;;;23.20;12.68;;;;;;;;;;5069364;28;20059;-75
2022/04/25 10:44:28;;;;;;;22.58;13.15;;;;;;;;;;5045905;28;20516;-75
2022/04/25 10:47:04;;;;;;;22.70;12.73;;;;;;;;;;5060693;28;20084;-74
2022/04/25 10:49:34;;;;;;;24.25;13.05;;;;;;;;;;5044703;28;20049;-74
2022/04/25 10:52:02;;;;;;;20.05;11.90;;;;;;;;;;5044395;28;20526;-75
2022/04/25 10:54:46;;;;;;;23.73;12.32;;;;;;;;;;5046164;28;20108;-75
2022/04/25 10:57:14;;;;;;;19.52;10.80;;;;;;;;;;5043781;28;20127;-75
2022/04/25 10:59:40;;;;;;;22.95;12.38;;;;;;;;;;5046138;28;20058;-75
2022/04/25 11:02:23;;;;;;;20.35;12.65;;;;;;;;;;5045929;28;20512;-75
2022/04/25 11:05:08;;;;;;;22.77;12.27;;;;;;;;;;5046492;28;20045;-75
2022/04/25 11:07:37;;;;;;;22.17;11.68;;;;;;;;;;5044015;28;20089;-75
2022/04/25 11:10:07;;;;;;;22.50;12.30;;;;;;;;;;5046533;28;20618;-75
2022/04/25 11:12:52;;;;;;;18.85;11.52;;;;;;;;;;5044164;28;20083;-75
2022/04/25 11:15:38;;;;;;;19.75;12.00;;;;;;;;;;5045176;28;20140;-75
2022/04/25 11:18:19;;;;;;;24.77;12.45;;;;;;;;;;5033243;28;20527;-75
2022/04/25 11:21:04;;;;;;;23.08;11.75;;;;;;;;;;5060961;28;20487;-75
2022/04/25 11:23:32;;;;;;;20.90;12.10;;;;;;;;;;5044428;28;20869;-74
2022/04/25 11:26:05;;;;;;;19.90;11.65;;;;;;;;;;5038324;28;20061;-74
2022/04/25 11:28:33;;;;;;;20.52;11.20;;;;;;;;;;5044428;28;20061;-74
2022/04/25 11:31:14;;;;;;;23.60;12.52;;;;;;;;;;5043874;28;20200;-75
2022/04/25 11:33:44;;;;;;;21.83;11.95;;;;;;;;;;5046565;28;20401;-75
2022/04/25 11:36:11;;;;;;;23.95;12.82;;;;;;;;;;5043858;28;20648;-75
2022/04/25 11:41:23;;;;;;;19.63;11.77;;;;;;;;;;5044458;28;20138;-76
2022/04/25 11:43:49;;;;;;;23.27;11.55;;;;;;;;;;5044686;28;20073;-75
2022/04/25 11:46:16;;;;;;;21.05;12.52;;;;;;;;;;5039989;28;20520;-75
2022/04/25 11:48:47;;;;;;;20.63;12.40;;;;;;;;;;5043596;28;20049;-75
2022/04/25 11:51:21;;;;;;;21.58;12.85;;;;;;;;;;5046045;28;20472;-76
2022/04/25 11:53:47;;;;;;;21.58;13.23;;;;;;;;;;5042990;28;20057;-76
2022/04/25 11:56:14;;;;;;;20.15;11.95;;;;;;;;;;5044635;28;20135;-75
2022/04/25 11:58:41;;;;;;;22.10;12.45;;;;;;;;;;5043339;28;20080;-75
2022/04/25 12:01:10;;;;;;;19.20;12.43;;;;;;;;;;5042730;28;20096;-75
2022/04/25 12:03:37;;;;;;;21.25;11.57;;;;;;;;;;5044284;28;20565;-77
2022/04/25 12:06:10;;;;;;;20.90;12.13;;;;;;;;;;5035102;28;20131;-74
2022/04/25 12:16:54;;;;;;;21.02;12.70;;;;;;;;;;5044743;28;20245;-74
2022/04/25 12:19:21;;;;;;;21.45;12.18;;;;;;;;;;5057273;28;20523;-74
2022/04/25 12:21:58;;;;;;;19.85;11.82;;;;;;;;;;5041118;28;20084;-74
2022/04/25 12:24:24;;;;;;;22.08;12.27;;;;;;;;;;5042877;28;20069;-74
2022/04/25 12:26:51;;;;;;;20.90;12.60;;;;;;;;;;5033227;28;20251;-75
2022/04/25 12:29:17;;;;;;;20.27;12.13;;;;;;;;;;5044153;28;20054;-76
2022/04/25 12:31:45;;;;;;;20.50;12.48;;;;;;;;;;5044131;28;20057;-75
2022/04/25 12:34:13;;;;;;;22.98;12.52;;;;;;;;;;5050230;28;20095;-75
2022/04/25 12:36:51;;;;;;;22.02;11.63;;;;;;;;;;5051982;28;20058;-76
2022/04/25 12:39:17;;;;;;;20.77;12.50;;;;;;;;;;5045243;28;20136;-75
2022/04/25 12:42:01;;;;;;;22.58;12.85;;;;;;;;;;5045547;28;20141;-75
2022/04/25 12:44:29;;;;;;;23.65;13.07;;;;;;;;;;5046466;28;20053;-76
2022/04/25 12:46:59;;;;;;;25.10;12.50;;;;;;;;;;5044206;28;20143;-75
2022/04/25 12:49:33;;;;;;;21.65;12.80;;;;;;;;;;5044387;28;20049;-74
2022/04/25 12:52:00;;;;;;;21.17;12.40;;;;;;;;;;5044718;28;20049;-75
2022/04/25 12:54:37;;;;;;;19.80;12.15;;;;;;;;;;5046936;28;20112;-75
2022/04/25 12:57:15;;;;;;;19.30;12.07;;;;;;;;;;5043907;28;20166;-75
2022/04/25 12:59:46;;;;;;;23.90;12.25;;;;;;;;;;5046393;28;20139;-75
2022/04/25 13:02:14;;;;;;;19.50;11.68;;;;;;;;;;5043452;28;20142;-75
2022/04/25 13:04:55;;;;;;;22.25;11.88;;;;;;;;;;5043884;28;20061;-75
2022/04/25 13:07:22;;;;;;;18.95;11.93;;;;;;;;;;5047100;28;20545;-76
2022/04/25 13:09:49;;;;;;;20.27;11.35;;;;;;;;;;5045709;28;20153;-74
2022/04/25 13:12:18;;;;;;;22.83;13.02;;;;;;;;;;5048442;28;20127;-75
2022/04/25 13:14:45;;;;;;;23.63;13.30;;;;;;;;;;5047676;28;20053;-75
2022/04/25 13:17:12;;;;;;;21.25;12.30;;;;;;;;;;5040991;28;20490;-75
2022/04/25 13:19:39;;;;;;;21.05;12.45;;;;;;;;;;5048401;28;20131;-75
2022/04/25 13:22:05;;;;;;;24.15;12.50;;;;;;;;;;5045079;28;20514;-75
2022/04/25 13:24:36;;;;;;;22.23;12.48;;;;;;;;;;5046894;28;20531;-75
2022/04/25 13:27:03;;;;;;;21.35;11.65;;;;;;;;;;5045539;28;20907;-76
2022/04/25 13:29:29;;;;;;;22.10;11.55;;;;;;;;;;5046864;28;20080;-75
2022/04/25 13:31:56;;;;;;;19.80;11.63;;;;;;;;;;5048193;28;20136;-75
2022/04/25 13:34:22;;;;;;;21.90;11.40;;;;;;;;;;5044404;28;20049;-75
2022/04/25 13:36:49;;;;;;;18.83;11.13;;;;;;;;;;5046306;28;20524;-75
2022/04/25 13:39:15;;;;;;;21.38;11.98;;;;;;;;;;5041011;28;20089;-75
2022/04/25 13:41:42;;;;;;;20.63;11.48;;;;;;;;;;5042452;28;20046;-76
2022/04/25 13:44:08;;;;;;;22.67;11.80;;;;;;;;;;5041166;28;20057;-75
2022/04/25 13:46:34;;;;;;;18.67;11.38;;;;;;;;;;5045408;28;20136;-75
2022/04/25 13:49:07;;;;;;;19.73;11.45;;;;;;;;;;5048046;28;20049;-76
2022/04/25 13:51:34;;;;;;;18.92;10.98;;;;;;;;;;5047426;28;20124;-75
2022/04/25 13:54:01;;;;;;;23.38;11.63;;;;;;;;;;5046774;28;20061;-75
2022/04/25 13:56:27;;;;;;;19.15;11.30;;;;;;;;;;5046634;28;20084;-75
2022/04/25 13:58:54;;;;;;;19.08;11.30;;;;;;;;;;5046542;28;20058;-75
2022/04/25 14:01:21;;;;;;;19.00;10.65;;;;;;;;;;5047279;28;20812;-75
2022/04/25 14:03:49;;;;;;;20.08;11.27;;;;;;;;;;5046038;28;20053;-75
2022/04/25 14:06:16;;;;;;;21.52;11.90;;;;;;;;;;5045211;28;20107;-74
2022/04/25 14:08:43;;;;;;;20.17;11.23;;;;;;;;;;5063359;28;20054;-75
2022/04/25 14:11:10;;;;;;;19.73;11.50;;;;;;;;;;5042343;28;20132;-75
2022/04/25 14:13:36;;;;;;;21.77;12.95;;;;;;;;;;5042477;28;20187;-75
2022/04/25 14:16:03;;;;;;;19.67;11.95;;;;;;;;;;5043025;28;20554;-75
2022/04/25 14:18:30;;;;;;;21.23;11.80;;;;;;;;;;5045684;28;20058;-75
2022/04/25 14:20:58;;;;;;;20.10;12.10;;;;;;;;;;5059164;28;20540;-76
2022/04/25 14:23:25;;;;;;;22.15;12.13;;;;;;;;;;5044097;28;20542;-75
2022/04/25 14:25:54;;;;;;;24.35;12.75;;;;;;;;;;5044183;28;20088;-75
2022/04/25 14:28:21;;;;;;;26.98;13.18;;;;;;;;;;5046201;28;20104;-75
2022/04/25 14:30:48;;;;;;;24.92;13.43;;;;;;;;;;5043579;28;20057;-75
2022/04/25 14:33:15;;;;;;;23.27;12.88;;;;;;;;;;5047212;28;20152;-75
2022/04/25 14:35:41;;;;;;;22.27;12.95;;;;;;;;;;5060203;28;20621;-75
2022/04/25 14:38:08;;;;;;;25.35;13.57;;;;;;;;;;5041485;28;20108;-76
2022/04/25 14:40:34;;;;;;;23.85;13.57;;;;;;;;;;5036838;28;20058;-75
2022/04/25 14:43:01;;;;;;;25.33;13.75;;;;;;;;;;5034053;28;20046;-75
2022/04/25 14:45:27;;;;;;;23.17;13.18;;;;;;;;;;5039950;28;20615;-75
2022/04/25 14:47:56;;;;;;;27.02;14.73;;;;;;;;;;5046433;28;20319;-75
2022/04/25 14:55:53;;;;;;;25.25;14.43;;;;;;;;;;5045491;28;20081;-75
2022/04/25 14:58:19;;;;;;;30.25;15.82;;;;;;;;;;5045724;28;20053;-76
2022/04/25 15:00:46;;;;;;;28.17;13.95;;;;;;;;;;5044591;28;20046;-75
2022/04/25 15:03:12;;;;;;;24.00;14.10;;;;;;;;;;5044601;28;20061;-75
2022/04/25 15:05:41;;;;;;;31.33;15.05;;;;;;;;;;5045197;28;20057;-75
2022/04/25 15:08:09;;;;;;;34.00;15.38;;;;;;;;;;5060856;28;20419;-75
2022/04/25 15:10:39;;;;;;;26.27;14.82;;;;;;;;;;5045175;28;20053;-76
2022/04/25 15:13:07;;;;;;;29.95;14.48;;;;;;;;;;5040625;28;20144;-76